High Glow — 3EAV5 — position and weather

sailwx.info

Track history (hours):
 
Tides and Currents Weather Stations Pressure Air Temp Water Temp Dewpoint Dewpoint Depression Visibility Wind Speed Wind Dir Waves Ship Positions

High Glow

Last reported at 2017-Aug-17 07:12 UTC. Time now 2017-Aug-21 23:47 UTC.
Position N 45°37' W 073°30'.

Length 180 m; draft 11.2 m.

Type: Ship. MMSI: 371179000.

Date/timePositionNaut miles runAvg speedWind from/ knotsBaromVisibWave heightAir tempDewpointWater temp
2017-Aug-17 07:12N 45°37' W 073°30'0 0.5
2017-Aug-17 06:44N 45°38' W 073°30'6 5.4
2017-Aug-17 05:33N 45°43' W 073°26'0 7.7
2017-Aug-17 05:31N 45°44' W 073°25'  
2017-Aug-14 04:37N 51°03' W 057°42'312.2
2017-Aug-14 04:23N 51°05' W 057°38'  
2017-Aug-07 17:40N 49°47' W 005°20'410.9
2017-Aug-07 17:17N 49°47' W 005°13'310.0
2017-Aug-07 16:57N 49°48' W 005°08'511.2
2017-Aug-07 16:28N 49°48' W 004°60'511.6
2017-Aug-07 16:00N 49°50' W 004°52'612.1
2017-Aug-07 15:30N 49°50' W 004°42'612.5
2017-Aug-07 15:00N 49°51' W 004°33'612.8
2017-Aug-07 14:31N 49°52' W 004°23'713.1
2017-Aug-07 14:01N 49°53' W 004°13'713.6
2017-Aug-07 13:31N 49°53' W 004°02'713.9
2017-Aug-07 13:00N 49°53' W 003°52'714.2
2017-Aug-07 12:30N 49°55' W 003°41'714.2
2017-Aug-07 12:00N 49°56' W 003°30'713.9
2017-Aug-07 11:30N 49°57' W 003°19'713.6
2017-Aug-07 11:01N 49°58' W 003°09'713.3
2017-Aug-07 10:31N 49°59' W 002°58'613.0
2017-Aug-07 10:01N 50°00' W 002°49'612.4
2017-Aug-07 09:30N 50°02' W 002°39'  
Track history (hours):
 
Tides and Currents Weather Stations Pressure Air Temp Water Temp Dewpoint Dewpoint Depression Visibility Wind Speed Wind Dir Waves Ship Positions

High Glow

Last reported at 2017-Aug-17 07:12 UTC. Time now 2017-Aug-21 23:47 UTC.
Position N 45°37' W 073°30'.

Length 180 m; draft 11.2 m.

Type: Ship. MMSI: 371179000.

Date/timePositionNaut miles runAvg speedWind from/ knotsBaromVisibWave heightAir tempDewpointWater temp
2017-Aug-17 07:12N 45°37' W 073°30'0 0.5
2017-Aug-17 06:44N 45°38' W 073°30'6 5.4
2017-Aug-17 05:33N 45°43' W 073°26'0 7.7
2017-Aug-17 05:31N 45°44' W 073°25'  
2017-Aug-14 04:37N 51°03' W 057°42'312.2
2017-Aug-14 04:23N 51°05' W 057°38'  
2017-Aug-07 17:40N 49°47' W 005°20'410.9
2017-Aug-07 17:17N 49°47' W 005°13'310.0
2017-Aug-07 16:57N 49°48' W 005°08'511.2
2017-Aug-07 16:28N 49°48' W 004°60'511.6
2017-Aug-07 16:00N 49°50' W 004°52'612.1
2017-Aug-07 15:30N 49°50' W 004°42'612.5
2017-Aug-07 15:00N 49°51' W 004°33'612.8
2017-Aug-07 14:31N 49°52' W 004°23'713.1
2017-Aug-07 14:01N 49°53' W 004°13'713.6
2017-Aug-07 13:31N 49°53' W 004°02'713.9
2017-Aug-07 13:00N 49°53' W 003°52'714.2
2017-Aug-07 12:30N 49°55' W 003°41'714.2
2017-Aug-07 12:00N 49°56' W 003°30'713.9
2017-Aug-07 11:30N 49°57' W 003°19'713.6
2017-Aug-07 11:01N 49°58' W 003°09'713.3
2017-Aug-07 10:31N 49°59' W 002°58'613.0
2017-Aug-07 10:01N 50°00' W 002°49'612.4
2017-Aug-07 09:30N 50°02' W 002°39'  

Dump ship's entire track history